sensor_id;sensor_type;location;lat;lon;timestamp;temperature;humidity
8313;DHT22;4194;43.408;24.626;2022-08-25T00:01:20;22.70;99.90
8313;DHT22;4194;43.408;24.626;2022-08-25T00:03:47;22.30;99.90
8313;DHT22;4194;43.408;24.626;2022-08-25T00:06:14;22.30;99.90
8313;DHT22;4194;43.408;24.626;2022-08-25T00:08:40;22.10;99.90
8313;DHT22;4194;43.408;24.626;2022-08-25T00:11:10;22.60;99.90
8313;DHT22;4194;43.408;24.626;2022-08-25T00:13:38;22.40;99.90
8313;DHT22;4194;43.408;24.626;2022-08-25T00:16:05;22.40;99.90
8313;DHT22;4194;43.408;24.626;2022-08-25T00:18:30;22.40;99.90
8313;DHT22;4194;43.408;24.626;2022-08-25T00:20:56;22.20;99.90
8313;DHT22;4194;43.408;24.626;2022-08-25T00:23:22;22.50;99.90
8313;DHT22;4194;43.408;24.626;2022-08-25T00:25:48;22.30;99.90
8313;DHT22;4194;43.408;24.626;2022-08-25T00:28:15;23.10;99.90
8313;DHT22;4194;43.408;24.626;2022-08-25T00:30:42;22.20;99.90
8313;DHT22;4194;43.408;24.626;2022-08-25T00:33:08;22.80;99.90
8313;DHT22;4194;43.408;24.626;2022-08-25T00:35:34;22.30;99.90
8313;DHT22;4194;43.408;24.626;2022-08-25T00:38:00;21.00;99.90
8313;DHT22;4194;43.408;24.626;2022-08-25T00:40:27;22.20;99.90
8313;DHT22;4194;43.408;24.626;2022-08-25T00:42:53;22.10;99.90
8313;DHT22;4194;43.408;24.626;2022-08-25T00:45:21;22.30;99.90
8313;DHT22;4194;43.408;24.626;2022-08-25T00:47:48;21.60;99.90
8313;DHT22;4194;43.408;24.626;2022-08-25T00:50:14;21.90;99.90
8313;DHT22;4194;43.408;24.626;2022-08-25T00:52:43;22.20;99.90
8313;DHT22;4194;43.408;24.626;2022-08-25T00:55:13;22.20;99.90
8313;DHT22;4194;43.408;24.626;2022-08-25T00:57:43;22.10;99.90
8313;DHT22;4194;43.408;24.626;2022-08-25T01:00:32;22.10;99.90
8313;DHT22;4194;43.408;24.626;2022-08-25T01:05:26;22.10;99.90
8313;DHT22;4194;43.408;24.626;2022-08-25T01:07:53;21.80;99.90
8313;DHT22;4194;43.408;24.626;2022-08-25T01:10:21;21.50;99.90
8313;DHT22;4194;43.408;24.626;2022-08-25T01:12:47;22.00;99.90
8313;DHT22;4194;43.408;24.626;2022-08-25T01:17:46;21.50;99.90
8313;DHT22;4194;43.408;24.626;2022-08-25T01:20:13;22.00;99.90
8313;DHT22;4194;43.408;24.626;2022-08-25T01:22:39;22.00;99.90
8313;DHT22;4194;43.408;24.626;2022-08-25T01:27:55;21.90;99.90
8313;DHT22;4194;43.408;24.626;2022-08-25T01:30:22;21.90;99.90
8313;DHT22;4194;43.408;24.626;2022-08-25T01:32:48;22.20;99.90
8313;DHT22;4194;43.408;24.626;2022-08-25T01:35:14;22.10;99.90
8313;DHT22;4194;43.408;24.626;2022-08-25T01:37:40;22.30;99.90
8313;DHT22;4194;43.408;24.626;2022-08-25T01:40:06;20.90;99.90
8313;DHT22;4194;43.408;24.626;2022-08-25T01:42:41;22.50;99.90
8313;DHT22;4194;43.408;24.626;2022-08-25T01:45:10;22.20;99.90
8313;DHT22;4194;43.408;24.626;2022-08-25T01:47:37;21.90;99.90
8313;DHT22;4194;43.408;24.626;2022-08-25T01:50:04;22.00;99.90
8313;DHT22;4194;43.408;24.626;2022-08-25T01:55:12;20.50;99.90
8313;DHT22;4194;43.408;24.626;2022-08-25T01:57:38;22.00;99.90
8313;DHT22;4194;43.408;24.626;2022-08-25T02:00:06;22.00;99.90
8313;DHT22;4194;43.408;24.626;2022-08-25T02:02:32;22.10;99.90
8313;DHT22;4194;43.408;24.626;2022-08-25T02:07:24;23.30;99.90
8313;DHT22;4194;43.408;24.626;2022-08-25T02:09:49;22.10;99.90
8313;DHT22;4194;43.408;24.626;2022-08-25T02:12:15;20.20;99.90
8313;DHT22;4194;43.408;24.626;2022-08-25T02:14:41;22.00;99.90
8313;DHT22;4194;43.408;24.626;2022-08-25T02:17:06;20.10;99.90
8313;DHT22;4194;43.408;24.626;2022-08-25T02:21:58;21.80;99.90
8313;DHT22;4194;43.408;24.626;2022-08-25T02:24:24;22.20;99.90
8313;DHT22;4194;43.408;24.626;2022-08-25T02:26:50;22.10;99.90
8313;DHT22;4194;43.408;24.626;2022-08-25T02:31:43;22.00;99.90
8313;DHT22;4194;43.408;24.626;2022-08-25T02:34:10;23.40;99.90
8313;DHT22;4194;43.408;24.626;2022-08-25T02:36:37;22.00;99.90
8313;DHT22;4194;43.408;24.626;2022-08-25T02:39:04;22.00;99.90
8313;DHT22;4194;43.408;24.626;2022-08-25T02:41:31;23.20;99.90
8313;DHT22;4194;43.408;24.626;2022-08-25T02:44:00;22.90;99.90
8313;DHT22;4194;43.408;24.626;2022-08-25T02:46:26;23.10;99.90
8313;DHT22;4194;43.408;24.626;2022-08-25T02:48:52;22.00;99.90
8313;DHT22;4194;43.408;24.626;2022-08-25T02:51:24;21.90;99.90
8313;DHT22;4194;43.408;24.626;2022-08-25T02:53:50;21.90;99.90
8313;DHT22;4194;43.408;24.626;2022-08-25T02:56:18;22.00;99.90
8313;DHT22;4194;43.408;24.626;2022-08-25T02:58:45;21.90;99.90
8313;DHT22;4194;43.408;24.626;2022-08-25T03:01:11;21.70;99.90
8313;DHT22;4194;43.408;24.626;2022-08-25T03:03:38;21.30;99.90
8313;DHT22;4194;43.408;24.626;2022-08-25T03:08:32;21.80;99.90
8313;DHT22;4194;43.408;24.626;2022-08-25T03:10:57;21.70;99.90
8313;DHT22;4194;43.408;24.626;2022-08-25T03:13:23;22.00;99.90
8313;DHT22;4194;43.408;24.626;2022-08-25T03:15:48;21.70;99.90
8313;DHT22;4194;43.408;24.626;2022-08-25T03:18:14;19.80;99.90
8313;DHT22;4194;43.408;24.626;2022-08-25T03:20:40;21.60;99.90
8313;DHT22;4194;43.408;24.626;2022-08-25T03:23:06;19.40;99.90
8313;DHT22;4194;43.408;24.626;2022-08-25T03:25:32;21.50;99.90
8313;DHT22;4194;43.408;24.626;2022-08-25T03:30:44;21.80;99.90
8313;DHT22;4194;43.408;24.626;2022-08-25T03:33:10;22.80;99.90
8313;DHT22;4194;43.408;24.626;2022-08-25T03:35:35;21.80;99.90
8313;DHT22;4194;43.408;24.626;2022-08-25T03:38:01;21.50;99.90
8313;DHT22;4194;43.408;24.626;2022-08-25T03:40:27;21.70;99.90
8313;DHT22;4194;43.408;24.626;2022-08-25T03:42:53;21.60;99.90
8313;DHT22;4194;43.408;24.626;2022-08-25T03:45:21;21.40;99.90
8313;DHT22;4194;43.408;24.626;2022-08-25T03:47:48;21.40;99.90
8313;DHT22;4194;43.408;24.626;2022-08-25T03:50:16;21.40;99.90
8313;DHT22;4194;43.408;24.626;2022-08-25T03:52:42;22.20;99.90
8313;DHT22;4194;43.408;24.626;2022-08-25T03:57:35;21.40;99.90
8313;DHT22;4194;43.408;24.626;2022-08-25T04:00:04;21.70;99.90
8313;DHT22;4194;43.408;24.626;2022-08-25T04:02:30;21.50;99.90
8313;DHT22;4194;43.408;24.626;2022-08-25T04:04:58;21.40;99.90
8313;DHT22;4194;43.408;24.626;2022-08-25T04:07:23;21.40;99.90
8313;DHT22;4194;43.408;24.626;2022-08-25T04:09:49;21.60;99.90
8313;DHT22;4194;43.408;24.626;2022-08-25T04:12:15;22.00;99.90
8313;DHT22;4194;43.408;24.626;2022-08-25T04:14:40;21.60;99.90
8313;DHT22;4194;43.408;24.626;2022-08-25T04:17:07;20.80;99.90
8313;DHT22;4194;43.408;24.626;2022-08-25T04:19:33;21.70;99.90
8313;DHT22;4194;43.408;24.626;2022-08-25T04:24:25;21.90;99.90
8313;DHT22;4194;43.408;24.626;2022-08-25T04:26:51;20.60;99.90
8313;DHT22;4194;43.408;24.626;2022-08-25T04:29:20;22.30;99.90
8313;DHT22;4194;43.408;24.626;2022-08-25T04:31:46;21.10;99.90
8313;DHT22;4194;43.408;24.626;2022-08-25T04:34:18;21.80;99.90
8313;DHT22;4194;43.408;24.626;2022-08-25T04:36:44;21.90;99.90
8313;DHT22;4194;43.408;24.626;2022-08-25T04:39:10;22.70;99.90
8313;DHT22;4194;43.408;24.626;2022-08-25T04:41:36;22.20;99.90
8313;DHT22;4194;43.408;24.626;2022-08-25T04:44:03;22.90;99.90
8313;DHT22;4194;43.408;24.626;2022-08-25T04:46:30;22.60;99.90
8313;DHT22;4194;43.408;24.626;2022-08-25T04:48:58;22.20;99.90
8313;DHT22;4194;43.408;24.626;2022-08-25T04:51:36;21.80;99.90
8313;DHT22;4194;43.408;24.626;2022-08-25T04:54:05;22.40;99.90
8313;DHT22;4194;43.408;24.626;2022-08-25T04:56:31;22.60;99.90
8313;DHT22;4194;43.408;24.626;2022-08-25T04:59:05;20.40;99.90
8313;DHT22;4194;43.408;24.626;2022-08-25T05:01:32;23.10;99.90
8313;DHT22;4194;43.408;24.626;2022-08-25T05:04:00;22.70;99.90
8313;DHT22;4194;43.408;24.626;2022-08-25T05:06:27;21.60;99.90
8313;DHT22;4194;43.408;24.626;2022-08-25T05:08:53;24.40;99.90
8313;DHT22;4194;43.408;24.626;2022-08-25T05:11:20;22.10;99.90
8313;DHT22;4194;43.408;24.626;2022-08-25T05:13:48;22.20;99.90
8313;DHT22;4194;43.408;24.626;2022-08-25T05:16:15;23.40;99.90
8313;DHT22;4194;43.408;24.626;2022-08-25T05:21:10;23.50;99.90
8313;DHT22;4194;43.408;24.626;2022-08-25T05:26:08;22.60;99.90
8313;DHT22;4194;43.408;24.626;2022-08-25T05:28:34;23.20;99.90
8313;DHT22;4194;43.408;24.626;2022-08-25T05:31:02;23.50;99.90
8313;DHT22;4194;43.408;24.626;2022-08-25T05:33:30;23.00;99.90
8313;DHT22;4194;43.408;24.626;2022-08-25T05:35:56;21.00;99.90
8313;DHT22;4194;43.408;24.626;2022-08-25T05:40:57;25.30;99.90
8313;DHT22;4194;43.408;24.626;2022-08-25T05:43:26;23.90;99.90
8313;DHT22;4194;43.408;24.626;2022-08-25T05:45:54;23.20;99.90
8313;DHT22;4194;43.408;24.626;2022-08-25T05:48:22;22.80;99.90
8313;DHT22;4194;43.408;24.626;2022-08-25T05:51:08;23.20;99.90
8313;DHT22;4194;43.408;24.626;2022-08-25T05:53:45;23.60;99.90
8313;DHT22;4194;43.408;24.626;2022-08-25T05:56:14;23.30;99.90
8313;DHT22;4194;43.408;24.626;2022-08-25T05:58:40;23.00;99.90
8313;DHT22;4194;43.408;24.626;2022-08-25T06:01:09;23.30;99.90
8313;DHT22;4194;43.408;24.626;2022-08-25T06:03:53;23.60;99.90
8313;DHT22;4194;43.408;24.626;2022-08-25T06:06:26;23.40;99.90
8313;DHT22;4194;43.408;24.626;2022-08-25T06:08:53;22.90;99.90
8313;DHT22;4194;43.408;24.626;2022-08-25T06:11:18;24.30;99.90
8313;DHT22;4194;43.408;24.626;2022-08-25T06:13:45;25.70;99.90
8313;DHT22;4194;43.408;24.626;2022-08-25T06:16:11;23.50;99.90
8313;DHT22;4194;43.408;24.626;2022-08-25T06:18:37;23.60;99.90
8313;DHT22;4194;43.408;24.626;2022-08-25T06:21:09;23.70;99.90
8313;DHT22;4194;43.408;24.626;2022-08-25T06:23:37;23.90;99.90
8313;DHT22;4194;43.408;24.626;2022-08-25T06:28:30;24.00;99.90
8313;DHT22;4194;43.408;24.626;2022-08-25T06:31:02;24.20;99.90
8313;DHT22;4194;43.408;24.626;2022-08-25T06:35:56;23.70;99.90
8313;DHT22;4194;43.408;24.626;2022-08-25T06:38:23;24.30;99.90
8313;DHT22;4194;43.408;24.626;2022-08-25T06:40:54;25.10;99.90
8313;DHT22;4194;43.408;24.626;2022-08-25T06:43:23;26.80;99.90
8313;DHT22;4194;43.408;24.626;2022-08-25T06:48:17;25.10;99.90
8313;DHT22;4194;43.408;24.626;2022-08-25T06:50:46;25.10;99.90
8313;DHT22;4194;43.408;24.626;2022-08-25T06:53:13;25.10;99.90
8313;DHT22;4194;43.408;24.626;2022-08-25T06:55:39;25.20;99.90
8313;DHT22;4194;43.408;24.626;2022-08-25T07:00:34;25.50;99.90
8313;DHT22;4194;43.408;24.626;2022-08-25T07:03:03;25.50;99.90
8313;DHT22;4194;43.408;24.626;2022-08-25T07:05:30;27.10;99.90
8313;DHT22;4194;43.408;24.626;2022-08-25T07:08:02;25.40;99.90
8313;DHT22;4194;43.408;24.626;2022-08-25T07:10:29;27.00;99.90
8313;DHT22;4194;43.408;24.626;2022-08-25T07:12:56;25.90;99.90
8313;DHT22;4194;43.408;24.626;2022-08-25T07:15:23;27.10;99.90
8313;DHT22;4194;43.408;24.626;2022-08-25T07:17:50;26.30;99.90
8313;DHT22;4194;43.408;24.626;2022-08-25T07:22:42;25.80;99.90
8313;DHT22;4194;43.408;24.626;2022-08-25T07:25:08;25.80;99.90
8313;DHT22;4194;43.408;24.626;2022-08-25T07:27:36;25.70;99.90
8313;DHT22;4194;43.408;24.626;2022-08-25T07:30:05;26.00;99.90
8313;DHT22;4194;43.408;24.626;2022-08-25T07:32:32;27.00;99.90
8313;DHT22;4194;43.408;24.626;2022-08-25T07:34:58;25.70;99.90
8313;DHT22;4194;43.408;24.626;2022-08-25T07:37:50;25.80;99.90
8313;DHT22;4194;43.408;24.626;2022-08-25T07:40:39;26.00;99.90
8313;DHT22;4194;43.408;24.626;2022-08-25T07:43:07;25.90;99.90
8313;DHT22;4194;43.408;24.626;2022-08-25T07:45:37;26.00;99.90
8313;DHT22;4194;43.408;24.626;2022-08-25T07:50:37;26.40;99.90
8313;DHT22;4194;43.408;24.626;2022-08-25T07:53:04;26.20;99.90
8313;DHT22;4194;43.408;24.626;2022-08-25T07:55:32;27.10;99.90
8313;DHT22;4194;43.408;24.626;2022-08-25T07:58:01;26.50;99.90
8313;DHT22;4194;43.408;24.626;2022-08-25T08:00:28;26.50;99.90
8313;DHT22;4194;43.408;24.626;2022-08-25T08:03:01;27.40;99.90
8313;DHT22;4194;43.408;24.626;2022-08-25T08:05:28;27.50;99.90
8313;DHT22;4194;43.408;24.626;2022-08-25T08:07:54;26.90;99.90
8313;DHT22;4194;43.408;24.626;2022-08-25T08:10:22;27.40;99.90
8313;DHT22;4194;43.408;24.626;2022-08-25T08:12:50;27.70;99.90
8313;DHT22;4194;43.408;24.626;2022-08-25T08:15:16;27.40;99.30
8313;DHT22;4194;43.408;24.626;2022-08-25T08:17:42;28.00;99.70
8313;DHT22;4194;43.408;24.626;2022-08-25T08:20:08;27.50;97.00
8313;DHT22;4194;43.408;24.626;2022-08-25T08:22:36;27.30;96.40
8313;DHT22;4194;43.408;24.626;2022-08-25T08:25:03;27.30;95.50
8313;DHT22;4194;43.408;24.626;2022-08-25T08:27:28;27.80;94.90
8313;DHT22;4194;43.408;24.626;2022-08-25T08:29:54;28.00;94.80
8313;DHT22;4194;43.408;24.626;2022-08-25T08:32:20;28.30;93.60
8313;DHT22;4194;43.408;24.626;2022-08-25T08:34:46;28.60;93.40
8313;DHT22;4194;43.408;24.626;2022-08-25T08:37:12;28.60;90.70
8313;DHT22;4194;43.408;24.626;2022-08-25T08:39:38;29.90;90.80
8313;DHT22;4194;43.408;24.626;2022-08-25T08:42:47;29.30;90.90
8313;DHT22;4194;43.408;24.626;2022-08-25T08:47:57;29.40;89.40
8313;DHT22;4194;43.408;24.626;2022-08-25T08:50:38;31.10;87.50
8313;DHT22;4194;43.408;24.626;2022-08-25T08:53:12;29.90;84.60
8313;DHT22;4194;43.408;24.626;2022-08-25T08:55:42;30.10;76.40
8313;DHT22;4194;43.408;24.626;2022-08-25T08:58:13;30.00;71.40
8313;DHT22;4194;43.408;24.626;2022-08-25T09:00:45;30.20;71.40
8313;DHT22;4194;43.408;24.626;2022-08-25T09:03:39;30.20;70.80
8313;DHT22;4194;43.408;24.626;2022-08-25T09:06:16;30.10;70.40
8313;DHT22;4194;43.408;24.626;2022-08-25T09:08:42;30.20;66.40
8313;DHT22;4194;43.408;24.626;2022-08-25T09:11:14;29.90;65.60
8313;DHT22;4194;43.408;24.626;2022-08-25T09:28:07;29.70;62.40
8313;DHT22;4194;43.408;24.626;2022-08-25T09:33:10;30.20;59.20
8313;DHT22;4194;43.408;24.626;2022-08-25T09:35:39;30.60;59.80
8313;DHT22;4194;43.408;24.626;2022-08-25T09:38:10;30.10;61.30
8313;DHT22;4194;43.408;24.626;2022-08-25T09:40:43;30.50;60.40
8313;DHT22;4194;43.408;24.626;2022-08-25T09:46:11;30.70;62.10
8313;DHT22;4194;43.408;24.626;2022-08-25T09:51:32;31.40;60.90
8313;DHT22;4194;43.408;24.626;2022-08-25T09:54:14;31.40;60.70
8313;DHT22;4194;43.408;24.626;2022-08-25T09:56:52;31.20;58.50
8313;DHT22;4194;43.408;24.626;2022-08-25T09:59:31;30.30;56.40
8313;DHT22;4194;43.408;24.626;2022-08-25T10:02:01;31.20;57.50
8313;DHT22;4194;43.408;24.626;2022-08-25T10:04:32;31.70;57.10
8313;DHT22;4194;43.408;24.626;2022-08-25T10:07:00;30.70;57.40
8313;DHT22;4194;43.408;24.626;2022-08-25T10:09:34;30.70;59.20
8313;DHT22;4194;43.408;24.626;2022-08-25T10:12:15;30.80;60.80
8313;DHT22;4194;43.408;24.626;2022-08-25T10:14:42;31.20;57.70
8313;DHT22;4194;43.408;24.626;2022-08-25T10:17:26;31.60;56.40
8313;DHT22;4194;43.408;24.626;2022-08-25T10:19:54;31.80;57.70
8313;DHT22;4194;43.408;24.626;2022-08-25T10:22:37;31.40;55.10
8313;DHT22;4194;43.408;24.626;2022-08-25T10:25:05;31.20;56.80
8313;DHT22;4194;43.408;24.626;2022-08-25T10:28:10;31.20;56.80
8313;DHT22;4194;43.408;24.626;2022-08-25T10:46:46;32.00;56.10
8313;DHT22;4194;43.408;24.626;2022-08-25T10:49:32;32.20;55.50
8313;DHT22;4194;43.408;24.626;2022-08-25T10:52:28;32.20;56.50
8313;DHT22;4194;43.408;24.626;2022-08-25T10:55:07;32.60;54.60
8313;DHT22;4194;43.408;24.626;2022-08-25T11:00:42;33.60;53.50
8313;DHT22;4194;43.408;24.626;2022-08-25T11:05:49;34.00;53.10
8313;DHT22;4194;43.408;24.626;2022-08-25T11:10:52;35.20;52.10
8313;DHT22;4194;43.408;24.626;2022-08-25T11:13:32;35.70;49.90
8313;DHT22;4194;43.408;24.626;2022-08-25T11:16:10;37.10;48.40
8313;DHT22;4194;43.408;24.626;2022-08-25T11:18:43;37.10;46.40
8313;DHT22;4194;43.408;24.626;2022-08-25T11:21:19;36.30;46.60
8313;DHT22;4194;43.408;24.626;2022-08-25T11:24:20;37.40;47.20
8313;DHT22;4194;43.408;24.626;2022-08-25T11:26:52;37.50;48.40
8313;DHT22;4194;43.408;24.626;2022-08-25T11:29:20;37.20;45.70
8313;DHT22;4194;43.408;24.626;2022-08-25T11:31:51;38.40;46.20
8313;DHT22;4194;43.408;24.626;2022-08-25T11:34:17;38.40;46.00
8313;DHT22;4194;43.408;24.626;2022-08-25T11:37:28;38.00;46.60
8313;DHT22;4194;43.408;24.626;2022-08-25T11:53:30;38.20;44.70
8313;DHT22;4194;43.408;24.626;2022-08-25T11:56:32;38.40;43.70
8313;DHT22;4194;43.408;24.626;2022-08-25T11:58:58;38.10;44.70
8313;DHT22;4194;43.408;24.626;2022-08-25T12:04:15;38.40;44.30
8313;DHT22;4194;43.408;24.626;2022-08-25T12:09:31;37.50;41.60
8313;DHT22;4194;43.408;24.626;2022-08-25T12:11:57;39.20;43.70
8313;DHT22;4194;43.408;24.626;2022-08-25T12:19:48;36.70;45.10
8313;DHT22;4194;43.408;24.626;2022-08-25T12:38:10;42.70;38.50
8313;DHT22;4194;43.408;24.626;2022-08-25T12:41:13;43.50;38.00
8313;DHT22;4194;43.408;24.626;2022-08-25T12:43:43;44.40;36.80
8313;DHT22;4194;43.408;24.626;2022-08-25T12:49:29;44.60;34.10
8313;DHT22;4194;43.408;24.626;2022-08-25T12:52:19;46.20;34.00
8313;DHT22;4194;43.408;24.626;2022-08-25T12:57:30;46.50;31.70
8313;DHT22;4194;43.408;24.626;2022-08-25T13:01:27;47.20;31.50
8313;DHT22;4194;43.408;24.626;2022-08-25T13:06:46;47.40;32.70
8313;DHT22;4194;43.408;24.626;2022-08-25T13:09:19;47.60;32.60
8313;DHT22;4194;43.408;24.626;2022-08-25T13:12:04;44.50;32.20
8313;DHT22;4194;43.408;24.626;2022-08-25T13:16:59;41.20;36.00
8313;DHT22;4194;43.408;24.626;2022-08-25T13:19:26;39.60;38.50
8313;DHT22;4194;43.408;24.626;2022-08-25T13:21:54;38.60;38.00
8313;DHT22;4194;43.408;24.626;2022-08-25T13:24:33;42.00;36.90
8313;DHT22;4194;43.408;24.626;2022-08-25T13:27:03;43.40;35.30
8313;DHT22;4194;43.408;24.626;2022-08-25T13:29:31;45.50;33.40
8313;DHT22;4194;43.408;24.626;2022-08-25T13:32:05;46.80;33.00
8313;DHT22;4194;43.408;24.626;2022-08-25T13:34:35;46.10;30.40
8313;DHT22;4194;43.408;24.626;2022-08-25T13:37:16;48.10;31.80
8313;DHT22;4194;43.408;24.626;2022-08-25T13:40:27;48.20;30.50
8313;DHT22;4194;43.408;24.626;2022-08-25T13:43:04;48.00;30.70
8313;DHT22;4194;43.408;24.626;2022-08-25T13:45:33;46.70;31.60
8313;DHT22;4194;43.408;24.626;2022-08-25T13:48:01;43.00;32.70
8313;DHT22;4194;43.408;24.626;2022-08-25T13:53:05;40.90;37.20
8313;DHT22;4194;43.408;24.626;2022-08-25T13:58:05;43.70;35.80
8313;DHT22;4194;43.408;24.626;2022-08-25T14:03:05;46.80;30.90
8313;DHT22;4194;43.408;24.626;2022-08-25T14:08:00;46.30;29.00
8313;DHT22;4194;43.408;24.626;2022-08-25T14:10:43;47.30;29.20
8313;DHT22;4194;43.408;24.626;2022-08-25T14:13:27;49.40;28.60
8313;DHT22;4194;43.408;24.626;2022-08-25T14:15:53;49.10;28.10
8313;DHT22;4194;43.408;24.626;2022-08-25T14:18:29;49.60;28.90
8313;DHT22;4194;43.408;24.626;2022-08-25T14:20:56;49.10;28.80
8313;DHT22;4194;43.408;24.626;2022-08-25T14:23:27;47.10;27.20
8313;DHT22;4194;43.408;24.626;2022-08-25T14:25:55;48.30;28.60
8313;DHT22;4194;43.408;24.626;2022-08-25T14:28:25;49.30;29.10
8313;DHT22;4194;43.408;24.626;2022-08-25T14:30:54;51.10;28.60
8313;DHT22;4194;43.408;24.626;2022-08-25T14:33:26;50.60;29.10
8313;DHT22;4194;43.408;24.626;2022-08-25T14:35:54;50.30;29.10
8313;DHT22;4194;43.408;24.626;2022-08-25T14:38:22;49.30;28.50
8313;DHT22;4194;43.408;24.626;2022-08-25T14:40:49;50.40;28.40
8313;DHT22;4194;43.408;24.626;2022-08-25T14:43:15;49.40;28.10
8313;DHT22;4194;43.408;24.626;2022-08-25T14:45:44;49.20;28.50
8313;DHT22;4194;43.408;24.626;2022-08-25T14:50:46;50.70;28.20
8313;DHT22;4194;43.408;24.626;2022-08-25T14:53:12;49.00;27.60
8313;DHT22;4194;43.408;24.626;2022-08-25T14:55:38;50.50;27.60
8313;DHT22;4194;43.408;24.626;2022-08-25T14:58:04;50.00;28.00
8313;DHT22;4194;43.408;24.626;2022-08-25T15:00:29;49.50;27.60
8313;DHT22;4194;43.408;24.626;2022-08-25T15:02:55;50.20;28.00
8313;DHT22;4194;43.408;24.626;2022-08-25T15:05:25;49.80;28.90
8313;DHT22;4194;43.408;24.626;2022-08-25T15:07:52;48.50;29.00
8313;DHT22;4194;43.408;24.626;2022-08-25T15:10:38;48.80;28.60
8313;DHT22;4194;43.408;24.626;2022-08-25T15:13:04;48.60;29.40
8313;DHT22;4194;43.408;24.626;2022-08-25T15:15:31;46.60;27.50
8313;DHT22;4194;43.408;24.626;2022-08-25T15:17:57;46.00;28.50
8313;DHT22;4194;43.408;24.626;2022-08-25T15:20:24;46.80;27.90
8313;DHT22;4194;43.408;24.626;2022-08-25T15:22:49;49.20;30.50
8313;DHT22;4194;43.408;24.626;2022-08-25T15:25:15;46.20;29.20
8313;DHT22;4194;43.408;24.626;2022-08-25T15:27:41;46.90;28.90
8313;DHT22;4194;43.408;24.626;2022-08-25T15:30:07;45.90;29.50
8313;DHT22;4194;43.408;24.626;2022-08-25T15:32:33;45.20;30.00
8313;DHT22;4194;43.408;24.626;2022-08-25T15:37:25;45.20;31.70
8313;DHT22;4194;43.408;24.626;2022-08-25T15:39:51;44.30;31.90
8313;DHT22;4194;43.408;24.626;2022-08-25T15:44:43;44.10;33.80
8313;DHT22;4194;43.408;24.626;2022-08-25T15:49:35;40.90;36.50
8313;DHT22;4194;43.408;24.626;2022-08-25T15:52:01;40.60;37.60
8313;DHT22;4194;43.408;24.626;2022-08-25T15:54:28;37.60;39.40
8313;DHT22;4194;43.408;24.626;2022-08-25T15:56:55;36.70;38.20
8313;DHT22;4194;43.408;24.626;2022-08-25T15:59:22;36.20;38.90
8313;DHT22;4194;43.408;24.626;2022-08-25T16:01:48;35.70;40.90
8313;DHT22;4194;43.408;24.626;2022-08-25T16:04:18;35.50;42.40
8313;DHT22;4194;43.408;24.626;2022-08-25T16:06:44;34.60;41.60
8313;DHT22;4194;43.408;24.626;2022-08-25T16:11:36;33.80;42.30
8313;DHT22;4194;43.408;24.626;2022-08-25T16:14:03;32.30;43.40
8313;DHT22;4194;43.408;24.626;2022-08-25T16:16:29;31.60;44.10
8313;DHT22;4194;43.408;24.626;2022-08-25T16:21:25;32.60;46.10
8313;DHT22;4194;43.408;24.626;2022-08-25T16:23:53;31.90;47.10
8313;DHT22;4194;43.408;24.626;2022-08-25T16:26:19;32.30;48.20
8313;DHT22;4194;43.408;24.626;2022-08-25T16:31:12;30.60;49.40
8313;DHT22;4194;43.408;24.626;2022-08-25T16:33:39;31.40;50.80
8313;DHT22;4194;43.408;24.626;2022-08-25T16:36:09;31.40;51.60
8313;DHT22;4194;43.408;24.626;2022-08-25T16:38:35;31.70;51.80
8313;DHT22;4194;43.408;24.626;2022-08-25T16:41:05;30.90;53.10
8313;DHT22;4194;43.408;24.626;2022-08-25T16:46:03;28.80;54.40
8313;DHT22;4194;43.408;24.626;2022-08-25T16:48:30;28.40;53.40
8313;DHT22;4194;43.408;24.626;2022-08-25T16:50:56;29.30;54.70
8313;DHT22;4194;43.408;24.626;2022-08-25T16:53:22;31.10;56.90
8313;DHT22;4194;43.408;24.626;2022-08-25T16:56:07;27.80;55.20
8313;DHT22;4194;43.408;24.626;2022-08-25T16:58:33;27.60;54.80
8313;DHT22;4194;43.408;24.626;2022-08-25T17:01:10;29.10;57.30
8313;DHT22;4194;43.408;24.626;2022-08-25T17:03:39;28.70;57.60
8313;DHT22;4194;43.408;24.626;2022-08-25T17:06:07;28.90;58.10
8313;DHT22;4194;43.408;24.626;2022-08-25T17:08:34;27.90;57.40
8313;DHT22;4194;43.408;24.626;2022-08-25T17:11:10;28.00;58.60
8313;DHT22;4194;43.408;24.626;2022-08-25T17:13:40;26.80;58.50
8313;DHT22;4194;43.408;24.626;2022-08-25T17:16:06;29.90;61.10
8313;DHT22;4194;43.408;24.626;2022-08-25T17:18:32;28.20;60.70
8313;DHT22;4194;43.408;24.626;2022-08-25T17:21:01;28.00;61.00
8313;DHT22;4194;43.408;24.626;2022-08-25T17:23:27;27.80;61.10
8313;DHT22;4194;43.408;24.626;2022-08-25T17:25:53;27.20;61.90
8313;DHT22;4194;43.408;24.626;2022-08-25T17:28:19;26.60;62.00
8313;DHT22;4194;43.408;24.626;2022-08-25T17:33:12;26.50;62.60
8313;DHT22;4194;43.408;24.626;2022-08-25T17:35:40;27.10;64.50
8313;DHT22;4194;43.408;24.626;2022-08-25T17:40:32;26.60;63.70
8313;DHT22;4194;43.408;24.626;2022-08-25T17:42:58;26.80;64.60
8313;DHT22;4194;43.408;24.626;2022-08-25T17:45:23;26.10;64.30
8313;DHT22;4194;43.408;24.626;2022-08-25T17:47:49;26.60;65.10
8313;DHT22;4194;43.408;24.626;2022-08-25T17:50:15;26.50;65.40
8313;DHT22;4194;43.408;24.626;2022-08-25T17:55:07;26.30;66.60
8313;DHT22;4194;43.408;24.626;2022-08-25T17:57:33;26.70;66.80
8313;DHT22;4194;43.408;24.626;2022-08-25T17:59:58;27.00;68.00
8313;DHT22;4194;43.408;24.626;2022-08-25T18:02:24;26.90;69.40
8313;DHT22;4194;43.408;24.626;2022-08-25T18:04:50;26.00;68.90
8313;DHT22;4194;43.408;24.626;2022-08-25T18:07:15;25.80;68.50
8313;DHT22;4194;43.408;24.626;2022-08-25T18:12:08;26.60;71.60
8313;DHT22;4194;43.408;24.626;2022-08-25T18:17:00;26.00;71.80
8313;DHT22;4194;43.408;24.626;2022-08-25T18:19:28;26.30;69.50
8313;DHT22;4194;43.408;24.626;2022-08-25T18:21:53;25.50;71.40
8313;DHT22;4194;43.408;24.626;2022-08-25T18:24:19;25.80;71.30
8313;DHT22;4194;43.408;24.626;2022-08-25T18:26:45;25.70;71.80
8313;DHT22;4194;43.408;24.626;2022-08-25T18:29:10;26.70;73.70
8313;DHT22;4194;43.408;24.626;2022-08-25T18:34:03;26.60;75.20
8313;DHT22;4194;43.408;24.626;2022-08-25T18:41:44;26.50;75.20
8313;DHT22;4194;43.408;24.626;2022-08-25T18:44:10;24.00;73.80
8313;DHT22;4194;43.408;24.626;2022-08-25T18:46:35;25.80;76.20
8313;DHT22;4194;43.408;24.626;2022-08-25T18:51:27;25.50;76.20
8313;DHT22;4194;43.408;24.626;2022-08-25T18:53:53;23.90;74.10
8313;DHT22;4194;43.408;24.626;2022-08-25T18:56:19;26.70;75.50
8313;DHT22;4194;43.408;24.626;2022-08-25T18:58:46;25.00;75.00
8313;DHT22;4194;43.408;24.626;2022-08-25T19:01:13;24.90;75.70
8313;DHT22;4194;43.408;24.626;2022-08-25T19:03:39;24.00;70.40
8313;DHT22;4194;43.408;24.626;2022-08-25T19:06:05;23.70;71.20
8313;DHT22;4194;43.408;24.626;2022-08-25T19:10:57;23.70;72.10
8313;DHT22;4194;43.408;24.626;2022-08-25T19:13:24;26.30;73.20
8313;DHT22;4194;43.408;24.626;2022-08-25T19:15:50;25.30;72.90
8313;DHT22;4194;43.408;24.626;2022-08-25T19:18:17;24.30;71.40
8313;DHT22;4194;43.408;24.626;2022-08-25T19:20:43;23.60;68.40
8313;DHT22;4194;43.408;24.626;2022-08-25T19:23:10;23.20;68.80
8313;DHT22;4194;43.408;24.626;2022-08-25T19:25:36;26.20;68.50